Airports Spain Málaga Airport

Málaga Airport (LEMG / AGP)

Facts about Málaga Airport

Name Málaga Airport
City Malaga
Country Spain
ICAO code LEMG
IATA code AGP
Elevation 16.1544 meters (53 feet)

Weather

METAR

Metar data retrieved Saturday, 20 July 2024 at 00:25 UTC (16 minutes ago)

LEMG 200000Z 31001KT CAVOK 23/20 Q1015 NOSIG

Live traffic

Navigraph Charts (account required)